createdAt,value
2018-02-12T00:00:13.688Z,43.50
2018-02-12T00:01:18.600Z,43.50
2018-02-12T00:02:23.546Z,43.50
2018-02-12T00:03:28.485Z,43.50
2018-02-12T00:04:33.610Z,43.50
2018-02-12T00:05:38.472Z,43.50
2018-02-12T00:06:43.889Z,43.50
2018-02-12T00:07:48.703Z,43.50
2018-02-12T00:08:53.452Z,43.60
2018-02-12T00:09:58.356Z,43.50
2018-02-12T00:11:03.382Z,43.50
2018-02-12T00:12:08.269Z,43.50
2018-02-12T00:13:13.211Z,43.50
2018-02-12T00:14:17.983Z,43.50
2018-02-12T00:15:23.044Z,43.50
2018-02-12T00:16:27.795Z,43.50
2018-02-12T00:17:32.662Z,43.50
2018-02-12T00:18:37.613Z,43.50
2018-02-12T00:19:42.491Z,43.50
2018-02-12T00:20:47.437Z,43.50
2018-02-12T00:21:52.815Z,43.50
2018-02-12T00:22:57.621Z,43.50
2018-02-12T00:24:02.824Z,43.50
2018-02-12T00:25:07.639Z,43.50
2018-02-12T00:26:13.192Z,43.50
2018-02-12T00:27:17.890Z,43.50
2018-02-12T00:28:22.650Z,43.50
2018-02-12T00:29:27.587Z,43.50
2018-02-12T00:30:32.623Z,43.50
2018-02-12T00:31:37.600Z,43.50
2018-02-12T00:32:42.400Z,43.50
2018-02-12T00:33:47.562Z,43.50
2018-02-12T00:34:53.242Z,43.50
2018-02-12T00:35:58.150Z,43.40
2018-02-12T00:37:03.041Z,43.40
2018-02-12T00:38:07.798Z,43.40
2018-02-12T00:39:12.833Z,43.30
2018-02-12T00:40:17.852Z,43.40
2018-02-12T00:41:22.761Z,43.30
2018-02-12T00:42:27.955Z,43.30
2018-02-12T00:43:32.880Z,43.30
2018-02-12T00:44:37.968Z,43.30
2018-02-12T00:45:43.167Z,43.40
2018-02-12T00:46:48.133Z,43.50
2018-02-12T00:47:53.229Z,43.60
2018-02-12T00:48:58.192Z,43.50
2018-02-12T00:50:03.314Z,43.50
2018-02-12T00:51:08.546Z,43.60
2018-02-12T00:52:13.440Z,43.60
2018-02-12T00:53:18.292Z,43.60
2018-02-12T00:54:23.343Z,43.70
2018-02-12T00:55:28.120Z,43.60
2018-02-12T00:56:33.436Z,43.70
2018-02-12T00:57:38.315Z,43.70
2018-02-12T00:58:43.309Z,43.70
2018-02-12T00:59:48.145Z,43.70
2018-02-12T01:00:53.288Z,44.40
2018-02-12T01:01:58.095Z,43.70
2018-02-12T01:03:02.968Z,43.80
2018-02-12T01:04:07.990Z,43.80
2018-02-12T01:05:12.883Z,43.70
2018-02-12T01:06:18.030Z,43.80
2018-02-12T01:07:22.976Z,43.80
2018-02-12T01:08:28.102Z,43.80
2018-02-12T01:09:33.489Z,43.80
2018-02-12T01:10:38.370Z,43.80
2018-02-12T01:11:43.162Z,43.80
2018-02-12T01:12:47.939Z,43.80
2018-02-12T01:13:52.812Z,43.80
2018-02-12T01:14:58.247Z,43.80
2018-02-12T01:16:03.276Z,43.80
2018-02-12T01:17:08.059Z,43.80
2018-02-12T01:18:13.116Z,43.80
2018-02-12T01:19:17.877Z,43.80
2018-02-12T01:20:22.973Z,43.80
2018-02-12T01:21:27.889Z,43.80
2018-02-12T01:22:33.226Z,43.80
2018-02-12T01:23:38.061Z,43.80
2018-02-12T01:24:43.015Z,43.80
2018-02-12T01:25:47.847Z,43.80
2018-02-12T01:26:53.977Z,43.70
2018-02-12T01:27:58.894Z,43.70
2018-02-12T01:29:04.079Z,43.80
2018-02-12T01:30:08.782Z,43.70
2018-02-12T01:31:13.720Z,43.80
2018-02-12T01:32:18.561Z,43.80
2018-02-12T01:33:23.321Z,43.80
2018-02-12T01:34:29.421Z,43.80
2018-02-12T01:35:34.187Z,43.80
2018-02-12T01:36:39.190Z,43.80
2018-02-12T01:37:44.172Z,43.70
2018-02-12T01:38:49.796Z,43.70
2018-02-12T01:39:54.699Z,43.70
2018-02-12T01:40:59.474Z,43.80
2018-02-12T01:42:04.384Z,43.70
2018-02-12T01:43:09.186Z,43.70
2018-02-12T01:44:14.828Z,43.80
2018-02-12T01:45:20.547Z,43.80
2018-02-12T01:46:26.340Z,43.90
2018-02-12T01:47:31.262Z,43.80
2018-02-12T01:48:36.070Z,43.80
2018-02-12T01:49:40.889Z,43.80
2018-02-12T01:50:45.670Z,43.80
2018-02-12T01:51:50.786Z,43.70
2018-02-12T01:52:56.362Z,43.80
2018-02-12T01:54:01.443Z,43.80
2018-02-12T01:55:06.388Z,43.70
2018-02-12T01:56:11.350Z,43.90
2018-02-12T01:57:16.106Z,43.80
2018-02-12T01:58:21.070Z,43.90
2018-02-12T01:59:26.054Z,43.80
2018-02-12T02:00:31.082Z,44.50
2018-02-12T02:01:36.057Z,43.80
2018-02-12T02:02:41.013Z,43.70
2018-02-12T02:03:46.038Z,43.80
2018-02-12T02:04:50.771Z,43.80
2018-02-12T02:05:55.590Z,43.80
2018-02-12T02:07:01.279Z,43.70
2018-02-12T02:08:07.616Z,43.70
2018-02-12T02:09:12.373Z,43.70
2018-02-12T02:10:17.334Z,43.80
2018-02-12T02:11:22.074Z,43.80
2018-02-12T02:12:26.846Z,43.80
2018-02-12T02:13:31.629Z,43.80
2018-02-12T02:14:36.399Z,43.80
2018-02-12T02:15:41.836Z,43.80
2018-02-12T02:16:46.733Z,43.80
2018-02-12T02:17:51.666Z,43.80
2018-02-12T02:18:57.165Z,43.80
2018-02-12T02:20:02.984Z,43.80
2018-02-12T02:21:08.082Z,43.80
2018-02-12T02:22:13.004Z,43.80
2018-02-12T02:23:17.975Z,43.80
2018-02-12T02:24:22.795Z,43.80
2018-02-12T02:25:27.752Z,43.80
2018-02-12T02:26:32.632Z,43.80
2018-02-12T02:27:37.595Z,43.80
2018-02-12T02:28:42.578Z,43.80
2018-02-12T02:29:47.601Z,43.80
2018-02-12T02:30:52.404Z,43.80
2018-02-12T02:31:57.254Z,43.80
2018-02-12T02:33:02.152Z,43.80
2018-02-12T02:34:07.238Z,43.80
2018-02-12T02:35:12.754Z,43.80
2018-02-12T02:36:17.677Z,43.80
2018-02-12T02:37:22.784Z,43.80
2018-02-12T02:38:27.780Z,43.80
2018-02-12T02:39:32.855Z,43.80
2018-02-12T02:40:37.682Z,43.80
2018-02-12T02:41:42.616Z,43.80
2018-02-12T02:42:47.392Z,43.80
2018-02-12T02:43:53.389Z,43.80
2018-02-12T02:44:58.148Z,43.80
2018-02-12T02:46:03.240Z,43.80
2018-02-12T02:47:08.184Z,43.80
2018-02-12T02:48:13.853Z,43.80
2018-02-12T02:49:18.828Z,43.80
2018-02-12T02:50:23.744Z,43.80
2018-02-12T02:51:28.691Z,43.80
2018-02-12T02:52:33.448Z,43.80
2018-02-12T02:53:38.399Z,43.80
2018-02-12T02:54:44.160Z,43.80
2018-02-12T02:55:49.518Z,43.80
2018-02-12T02:56:54.854Z,43.80
2018-02-12T02:57:59.844Z,43.80
2018-02-12T02:59:04.844Z,43.80
2018-02-12T03:00:09.663Z,43.80
2018-02-12T03:01:14.717Z,43.80
2018-02-12T03:02:19.685Z,43.90
2018-02-12T03:03:25.612Z,43.80
2018-02-12T03:04:30.735Z,43.80
2018-02-12T03:05:35.833Z,43.80
2018-02-12T03:06:41.068Z,43.80
2018-02-12T03:07:46.059Z,43.80
2018-02-12T03:08:50.839Z,43.80
2018-02-12T03:09:55.689Z,43.80
2018-02-12T03:11:00.679Z,43.80
2018-02-12T03:12:05.634Z,43.80
2018-02-12T03:13:10.606Z,43.80
2018-02-12T03:14:16.798Z,43.80
2018-02-12T03:15:21.627Z,43.80
2018-02-12T03:16:26.613Z,43.90
2018-02-12T03:17:31.660Z,43.80
2018-02-12T03:18:36.772Z,43.80
2018-02-12T03:19:41.687Z,43.80
2018-02-12T03:20:46.688Z,43.90
2018-02-12T03:21:51.509Z,43.80
2018-02-12T03:22:57.251Z,43.80
2018-02-12T03:24:02.285Z,43.80
2018-02-12T03:25:07.270Z,43.80
2018-02-12T03:26:12.162Z,43.80
2018-02-12T03:27:17.171Z,43.80
2018-02-12T03:28:22.194Z,43.80
2018-02-12T03:29:26.985Z,43.80
2018-02-12T03:30:31.921Z,43.80
2018-02-12T03:31:36.895Z,43.80
2018-02-12T03:32:42.671Z,43.80
2018-02-12T03:33:47.457Z,43.80
2018-02-12T03:34:52.592Z,43.80
2018-02-12T03:35:57.408Z,43.80
2018-02-12T03:37:02.421Z,43.80
2018-02-12T03:38:07.212Z,43.80
2018-02-12T03:39:12.731Z,43.80
2018-02-12T03:40:17.733Z,43.80
2018-02-12T03:41:22.603Z,43.80
2018-02-12T03:42:28.229Z,43.80
2018-02-12T03:43:33.300Z,43.80
2018-02-12T03:44:38.182Z,43.80
2018-02-12T03:45:43.797Z,43.80
2018-02-12T03:46:49.276Z,43.80
2018-02-12T03:47:54.274Z,43.80
2018-02-12T03:48:59.221Z,43.80
2018-02-12T03:50:04.233Z,43.80
2018-02-12T03:51:09.228Z,43.80
2018-02-12T03:52:14.062Z,43.80
2018-02-12T03:53:19.062Z,43.80
2018-02-12T03:54:24.096Z,43.80
2018-02-12T03:55:29.630Z,43.80
2018-02-12T03:56:34.611Z,43.80
2018-02-12T03:57:39.586Z,43.90
2018-02-12T03:58:45.284Z,43.80
2018-02-12T03:59:50.974Z,43.80
2018-02-12T04:00:55.942Z,43.80
2018-02-12T04:02:01.019Z,43.80
2018-02-12T04:03:05.777Z,43.80
2018-02-12T04:04:10.555Z,43.80
2018-02-12T04:05:15.376Z,43.80
2018-02-12T04:06:20.293Z,43.90
2018-02-12T04:07:25.758Z,44.00
2018-02-12T04:08:30.521Z,44.10
2018-02-12T04:09:35.340Z,44.10
2018-02-12T04:10:40.240Z,44.00
2018-02-12T04:11:44.995Z,44.10
2018-02-12T04:12:49.932Z,44.10
2018-02-12T04:13:55.403Z,44.10
2018-02-12T04:15:00.296Z,44.80
2018-02-12T04:16:05.123Z,44.10
2018-02-12T04:17:10.082Z,44.10
2018-02-12T04:18:15.050Z,44.10
2018-02-12T04:19:20.062Z,44.10
2018-02-12T04:20:25.033Z,44.00
2018-02-12T04:21:29.839Z,44.10
2018-02-12T04:22:34.592Z,44.20
2018-02-12T04:23:39.589Z,44.10
2018-02-12T04:24:44.585Z,44.10
2018-02-12T04:25:49.798Z,44.10
2018-02-12T04:26:54.587Z,44.10
2018-02-12T04:27:59.615Z,44.10
2018-02-12T04:29:04.687Z,44.10
2018-02-12T04:30:09.531Z,44.10
2018-02-12T04:31:14.522Z,44.10
2018-02-12T04:32:19.260Z,44.10
2018-02-12T04:33:24.279Z,44.10
2018-02-12T04:34:29.381Z,44.10
2018-02-12T04:35:34.196Z,44.10
2018-02-12T04:36:39.227Z,44.10
2018-02-12T04:37:44.204Z,44.10
2018-02-12T04:38:49.000Z,44.10
2018-02-12T04:39:53.957Z,44.10
2018-02-12T04:40:59.331Z,44.10
2018-02-12T04:42:04.547Z,44.20
2018-02-12T04:43:10.971Z,44.10
2018-02-12T04:44:16.092Z,44.10
2018-02-12T04:45:21.007Z,44.10
2018-02-12T04:46:25.854Z,44.70
2018-02-12T04:47:30.704Z,44.10
2018-02-12T04:48:35.492Z,44.10
2018-02-12T04:49:40.439Z,44.10
2018-02-12T04:50:45.386Z,44.10
2018-02-12T04:51:50.165Z,44.10
2018-02-12T04:52:56.058Z,44.10
2018-02-12T04:54:00.844Z,44.00
2018-02-12T04:55:05.684Z,44.10
2018-02-12T04:56:10.626Z,44.00
2018-02-12T04:57:16.041Z,43.90
2018-02-12T04:58:20.904Z,43.80
2018-02-12T04:59:25.861Z,43.50
2018-02-12T05:00:30.693Z,43.50
2018-02-12T05:01:36.448Z,43.30
2018-02-12T05:02:41.466Z,43.20
2018-02-12T05:03:46.474Z,43.20
2018-02-12T05:04:51.304Z,43.20
2018-02-12T05:05:56.174Z,43.10
2018-02-12T05:07:01.219Z,43.00
2018-02-12T05:08:06.038Z,43.00
2018-02-12T05:09:11.528Z,42.80
2018-02-12T05:10:16.613Z,42.70
2018-02-12T05:11:21.380Z,42.70
2018-02-12T05:12:27.019Z,42.60
2018-02-12T05:13:31.850Z,42.50
2018-02-12T05:14:36.712Z,42.50
2018-02-12T05:15:41.553Z,42.40
2018-02-12T05:16:46.353Z,42.30
2018-02-12T05:17:51.191Z,42.30
2018-02-12T05:18:55.962Z,42.20
2018-02-12T05:20:01.325Z,42.10
2018-02-12T05:21:06.291Z,42.30
2018-02-12T05:22:11.111Z,42.00
2018-02-12T05:23:16.734Z,41.90
2018-02-12T05:24:21.776Z,41.70
2018-02-12T05:25:26.785Z,41.70
2018-02-12T05:26:32.041Z,41.70
2018-02-12T05:27:36.936Z,41.80
2018-02-12T05:28:41.753Z,41.60
2018-02-12T05:29:46.629Z,41.50
2018-02-12T05:30:51.581Z,41.50
2018-02-12T05:31:56.689Z,41.40
2018-02-12T05:33:01.815Z,41.40
2018-02-12T05:34:06.957Z,41.30
2018-02-12T05:35:11.733Z,41.20
2018-02-12T05:36:16.826Z,41.20
2018-02-12T05:37:22.985Z,41.10
2018-02-12T05:38:28.005Z,41.00
2018-02-12T05:39:33.033Z,41.00
2018-02-12T05:40:38.032Z,40.90
2018-02-12T05:41:42.979Z,40.80
2018-02-12T05:42:47.696Z,40.80
2018-02-12T05:43:52.806Z,40.70
2018-02-12T05:44:57.579Z,40.80
2018-02-12T05:46:02.540Z,40.70
2018-02-12T05:47:07.429Z,40.60
2018-02-12T05:48:12.188Z,40.60
2018-02-12T05:49:17.281Z,40.60
2018-02-12T05:50:22.192Z,41.20
2018-02-12T05:51:27.121Z,40.50
2018-02-12T05:52:31.951Z,40.50
2018-02-12T05:53:36.903Z,40.40
2018-02-12T05:54:41.971Z,40.30
2018-02-12T05:55:47.057Z,40.20
2018-02-12T05:56:52.693Z,40.10
2018-02-12T05:57:57.654Z,40.10
2018-02-12T05:59:03.229Z,40.10
2018-02-12T06:00:09.219Z,40.10
2018-02-12T06:01:14.836Z,40.00
2018-02-12T06:02:20.459Z,40.00
2018-02-12T06:03:25.417Z,40.00
2018-02-12T06:04:30.183Z,40.00
2018-02-12T06:05:35.675Z,39.90
2018-02-12T06:06:40.795Z,39.90
2018-02-12T06:07:46.937Z,39.90
2018-02-12T06:08:51.905Z,39.80
2018-02-12T06:09:56.796Z,39.60
2018-02-12T06:11:01.723Z,39.80
2018-02-12T06:12:07.874Z,39.70
2018-02-12T06:13:13.487Z,39.70
2018-02-12T06:14:18.434Z,39.70
2018-02-12T06:15:23.548Z,39.60
2018-02-12T06:16:28.365Z,39.60
2018-02-12T06:17:34.285Z,39.60
2018-02-12T06:18:39.377Z,39.60
2018-02-12T06:19:44.383Z,39.50
2018-02-12T06:20:49.253Z,39.40
2018-02-12T06:21:55.092Z,39.40
2018-02-12T06:23:00.457Z,39.30
2018-02-12T06:24:05.373Z,39.30
2018-02-12T06:25:10.274Z,39.20
2018-02-12T06:26:15.959Z,39.20
2018-02-12T06:27:20.779Z,39.30
2018-02-12T06:28:25.591Z,39.40
2018-02-12T06:29:30.560Z,39.50
2018-02-12T06:30:36.224Z,39.60
2018-02-12T06:31:41.247Z,39.70
2018-02-12T06:32:45.996Z,39.60
2018-02-12T06:33:50.906Z,39.70
2018-02-12T06:34:55.920Z,39.70
2018-02-12T06:36:00.727Z,39.80
2018-02-12T06:37:06.138Z,39.70
2018-02-12T06:38:11.267Z,39.80
2018-02-12T06:39:16.071Z,39.80
2018-02-12T06:40:21.088Z,40.00
2018-02-12T06:41:26.351Z,40.00
2018-02-12T06:42:31.554Z,40.00
2018-02-12T06:43:36.488Z,40.00
2018-02-12T06:44:41.530Z,40.00
2018-02-12T06:45:46.668Z,40.10
2018-02-12T06:46:51.697Z,40.10
2018-02-12T06:47:56.721Z,40.10
2018-02-12T06:49:02.017Z,40.10
2018-02-12T06:50:07.249Z,40.10
2018-02-12T06:51:12.257Z,40.20
2018-02-12T06:52:17.049Z,40.20
2018-02-12T06:53:21.859Z,40.30
2018-02-12T06:54:26.755Z,40.20
2018-02-12T06:55:31.672Z,40.30
2018-02-12T06:56:36.669Z,40.40
2018-02-12T06:57:41.597Z,40.30
2018-02-12T06:58:46.799Z,40.30
2018-02-12T06:59:52.674Z,40.40
2018-02-12T07:00:57.714Z,40.40
2018-02-12T07:02:02.774Z,40.40
2018-02-12T07:03:07.890Z,40.40
2018-02-12T07:04:14.192Z,40.40
2018-02-12T07:05:20.176Z,40.50
2018-02-12T07:06:25.205Z,40.50
2018-02-12T07:07:30.648Z,40.50
2018-02-12T07:08:35.597Z,40.50
2018-02-12T07:09:40.616Z,40.50
2018-02-12T07:10:45.728Z,40.50
2018-02-12T07:11:51.239Z,40.60
2018-02-12T07:12:56.150Z,40.70
2018-02-12T07:14:01.604Z,40.80
2018-02-12T07:15:06.659Z,40.70
2018-02-12T07:16:11.742Z,40.70
2018-02-12T07:17:16.819Z,40.70
2018-02-12T07:18:21.700Z,40.70
2018-02-12T07:19:26.787Z,40.70
2018-02-12T07:20:32.473Z,40.90
2018-02-12T07:21:37.571Z,40.80
2018-02-12T07:22:43.288Z,40.90
2018-02-12T07:23:48.451Z,40.80
2018-02-12T07:24:53.506Z,40.90
2018-02-12T07:25:58.583Z,40.80
2018-02-12T07:27:03.661Z,41.00
2018-02-12T07:28:08.727Z,40.90
2018-02-12T07:29:13.996Z,40.90
2018-02-12T07:30:18.990Z,40.90
2018-02-12T07:31:25.069Z,41.00
2018-02-12T07:32:30.108Z,41.00
2018-02-12T07:33:35.144Z,41.00
2018-02-12T07:34:40.230Z,41.00
2018-02-12T07:35:45.363Z,41.00
2018-02-12T07:36:51.165Z,41.00
2018-02-12T07:37:57.402Z,41.10
2018-02-12T07:39:02.948Z,41.10
2018-02-12T07:40:08.096Z,41.10
2018-02-12T07:41:13.889Z,41.10
2018-02-12T07:42:18.826Z,41.10
2018-02-12T07:43:23.696Z,41.10
2018-02-12T07:44:28.738Z,41.10
2018-02-12T07:45:34.315Z,41.10
2018-02-12T07:46:39.088Z,41.20
2018-02-12T07:47:45.141Z,41.20
2018-02-12T07:48:50.105Z,41.20
2018-02-12T07:49:55.087Z,41.20
2018-02-12T07:50:59.893Z,41.20
2018-02-12T07:52:04.962Z,41.40
2018-02-12T07:53:10.043Z,41.40
2018-02-12T07:54:14.950Z,41.50
2018-02-12T07:55:20.073Z,41.50
2018-02-12T07:56:25.913Z,41.50
2018-02-12T07:57:30.825Z,41.00
2018-02-12T07:58:35.763Z,39.50
2018-02-12T07:59:40.822Z,37.50
2018-02-12T08:00:46.098Z,37.40
2018-02-12T08:01:51.164Z,37.50
2018-02-12T08:02:56.744Z,37.80
2018-02-12T08:04:01.954Z,38.30
2018-02-12T08:05:06.901Z,38.60
2018-02-12T08:06:11.823Z,38.80
2018-02-12T08:07:17.272Z,39.10
2018-02-12T08:08:23.020Z,39.30
2018-02-12T08:09:27.936Z,39.30
2018-02-12T08:10:32.965Z,39.40
2018-02-12T08:11:37.855Z,39.50
2018-02-12T08:12:42.776Z,39.50
2018-02-12T08:13:47.659Z,39.60
2018-02-12T08:14:52.625Z,39.70
2018-02-12T08:15:58.093Z,39.70
2018-02-12T08:17:03.024Z,39.70
2018-02-12T08:18:08.088Z,39.80
2018-02-12T08:19:13.010Z,39.90
2018-02-12T08:20:18.106Z,39.90
2018-02-12T08:21:23.797Z,39.90
2018-02-12T08:22:28.993Z,39.90
2018-02-12T08:23:35.211Z,40.00
2018-02-12T08:24:40.142Z,40.00
2018-02-12T08:25:44.983Z,40.00
2018-02-12T08:26:50.201Z,40.00
2018-02-12T08:27:55.214Z,40.00
2018-02-12T08:29:00.234Z,40.00
2018-02-12T08:30:05.406Z,40.00
2018-02-12T08:31:10.547Z,40.10
2018-02-12T08:32:15.552Z,40.00
2018-02-12T08:33:20.376Z,40.10
2018-02-12T08:34:25.510Z,40.10
2018-02-12T08:35:30.638Z,40.20
2018-02-12T08:36:36.046Z,40.20
2018-02-12T08:37:41.015Z,40.20
2018-02-12T08:38:46.186Z,40.20
2018-02-12T08:39:51.253Z,40.20
2018-02-12T08:40:56.388Z,40.30
2018-02-12T08:42:01.489Z,40.20
2018-02-12T08:43:06.443Z,40.20
2018-02-12T08:44:11.482Z,40.20
2018-02-12T08:45:16.596Z,40.30
2018-02-12T08:46:21.468Z,40.20
2018-02-12T08:47:26.410Z,40.30
2018-02-12T08:48:31.290Z,40.30
2018-02-12T08:49:36.576Z,40.40
2018-02-12T08:50:41.544Z,40.40
2018-02-12T08:51:46.670Z,40.40
2018-02-12T08:52:51.691Z,40.40
2018-02-12T08:53:57.345Z,40.50
2018-02-12T08:55:03.122Z,40.50
2018-02-12T08:56:08.502Z,40.50
2018-02-12T08:57:13.487Z,40.50
2018-02-12T08:58:18.477Z,40.50
2018-02-12T08:59:23.619Z,40.70
2018-02-12T09:00:28.509Z,40.70
2018-02-12T09:01:33.766Z,40.70
2018-02-12T09:02:38.680Z,40.70
2018-02-12T09:03:44.712Z,40.70
2018-02-12T09:04:49.589Z,40.70
2018-02-12T09:05:55.193Z,40.70
2018-02-12T09:07:00.224Z,40.70
2018-02-12T09:08:05.939Z,40.80
2018-02-12T09:09:10.815Z,41.20
2018-02-12T09:10:15.839Z,41.60
2018-02-12T09:11:20.962Z,41.90
2018-02-12T09:12:25.906Z,41.70
2018-02-12T09:13:31.076Z,41.40
2018-02-12T09:14:37.162Z,41.30
2018-02-12T09:15:42.013Z,41.30
2018-02-12T09:16:47.112Z,41.20
2018-02-12T09:17:52.218Z,41.20
2018-02-12T09:18:57.068Z,41.10
2018-02-12T09:20:01.978Z,41.10
2018-02-12T09:21:06.772Z,41.00
2018-02-12T09:22:11.849Z,41.00
2018-02-12T09:23:16.866Z,40.90
2018-02-12T09:24:21.882Z,41.00
2018-02-12T09:25:26.880Z,41.10
2018-02-12T09:26:31.993Z,42.00
2018-02-12T09:27:38.028Z,41.40
2018-02-12T09:28:42.871Z,41.30
2018-02-12T09:29:47.898Z,41.20
2018-02-12T09:30:52.825Z,41.10
2018-02-12T09:31:57.895Z,41.00
2018-02-12T09:33:02.812Z,41.10
2018-02-12T09:34:07.727Z,41.20
2018-02-12T09:35:12.890Z,41.20
2018-02-12T09:36:17.922Z,41.10
2018-02-12T09:37:23.712Z,41.20
2018-02-12T09:38:29.432Z,41.10
2018-02-12T09:39:34.464Z,41.10
2018-02-12T09:40:39.575Z,41.10
2018-02-12T09:41:44.557Z,41.10
2018-02-12T09:42:49.639Z,41.20
2018-02-12T09:43:54.706Z,41.30
2018-02-12T09:44:59.690Z,41.10
2018-02-12T09:46:05.358Z,41.20
2018-02-12T09:47:10.579Z,41.30
2018-02-12T09:48:15.659Z,41.30
2018-02-12T09:49:20.857Z,41.40
2018-02-12T09:50:26.415Z,41.50
2018-02-12T09:51:31.367Z,41.60
2018-02-12T09:52:36.436Z,41.70
2018-02-12T09:53:41.284Z,41.70
2018-02-12T09:54:47.410Z,41.70
2018-02-12T09:55:52.572Z,41.70
2018-02-12T09:56:57.698Z,41.80
2018-02-12T09:58:02.865Z,41.90
2018-02-12T09:59:07.961Z,41.90
2018-02-12T10:00:13.224Z,41.80
2018-02-12T10:01:18.224Z,41.90
2018-02-12T10:02:23.755Z,41.90
2018-02-12T10:03:28.889Z,42.00
2018-02-12T10:04:34.085Z,42.00
2018-02-12T10:05:39.214Z,42.00
2018-02-12T10:06:44.964Z,42.10
2018-02-12T10:07:50.160Z,42.00
2018-02-12T10:08:55.241Z,41.90
2018-02-12T10:10:00.248Z,41.90
2018-02-12T10:11:05.414Z,42.00
2018-02-12T10:12:11.239Z,42.10
2018-02-12T10:13:16.273Z,42.10
2018-02-12T10:14:21.283Z,42.00
2018-02-12T10:15:26.237Z,42.00
2018-02-12T10:16:31.410Z,42.10
2018-02-12T10:17:39.274Z,42.40
2018-02-12T10:18:44.817Z,42.30
2018-02-12T10:19:50.939Z,42.20
2018-02-12T10:20:55.997Z,42.20
2018-02-12T10:22:01.052Z,42.30
2018-02-12T10:23:05.868Z,42.20
2018-02-12T10:24:10.953Z,42.20
2018-02-12T10:25:15.772Z,42.20
2018-02-12T10:26:20.789Z,42.20
2018-02-12T10:27:25.835Z,42.30
2018-02-12T10:28:30.926Z,42.40
2018-02-12T10:29:35.940Z,43.10
2018-02-12T10:30:40.989Z,42.80
2018-02-12T10:31:46.069Z,42.80
2018-02-12T10:32:50.967Z,42.60
2018-02-12T10:33:56.191Z,42.50
2018-02-12T10:35:01.143Z,42.50
2018-02-12T10:36:06.472Z,42.50
2018-02-12T10:37:11.971Z,42.50
2018-02-12T10:38:17.339Z,42.50
2018-02-12T10:39:23.060Z,42.50
2018-02-12T10:40:28.185Z,42.60
2018-02-12T10:41:33.285Z,42.50
2018-02-12T10:42:38.179Z,42.60
2018-02-12T10:43:43.285Z,42.60
2018-02-12T10:44:48.377Z,42.60
2018-02-12T10:45:53.499Z,42.60
2018-02-12T10:46:58.534Z,43.30
2018-02-12T10:48:03.607Z,42.70
2018-02-12T10:49:08.517Z,42.80
2018-02-12T10:50:13.922Z,42.80
2018-02-12T10:51:18.746Z,42.80
2018-02-12T10:52:23.782Z,42.90
2018-02-12T10:53:29.064Z,42.90
2018-02-12T10:54:34.922Z,42.90
2018-02-12T10:55:39.786Z,42.70
2018-02-12T10:56:45.197Z,42.90
2018-02-12T10:57:49.989Z,42.90
2018-02-12T10:58:55.514Z,43.00
2018-02-12T11:00:01.388Z,43.00
2018-02-12T11:01:06.537Z,43.00
2018-02-12T11:02:11.305Z,43.00
2018-02-12T11:03:16.309Z,43.00
2018-02-12T11:04:21.273Z,43.00
2018-02-12T11:05:26.058Z,43.70
2018-02-12T11:06:31.029Z,43.10
2018-02-12T11:07:35.904Z,43.10
2018-02-12T11:08:40.818Z,43.20
2018-02-12T11:09:45.607Z,44.10
2018-02-12T11:10:50.412Z,44.70
2018-02-12T11:11:55.301Z,44.70
2018-02-12T11:13:00.702Z,44.70
2018-02-12T11:14:05.803Z,44.70
2018-02-12T11:15:10.712Z,44.60
2018-02-12T11:16:16.031Z,44.50
2018-02-12T11:17:21.028Z,44.40
2018-02-12T11:18:25.936Z,44.30
2018-02-12T11:19:31.056Z,44.10
2018-02-12T11:20:35.937Z,44.00
2018-02-12T11:21:40.881Z,44.00
2018-02-12T11:22:45.761Z,44.00
2018-02-12T11:23:50.748Z,44.00
2018-02-12T11:24:55.588Z,44.10
2018-02-12T11:26:00.408Z,44.10
2018-02-12T11:27:05.271Z,44.10
2018-02-12T11:28:10.165Z,44.10
2018-02-12T11:29:15.013Z,44.20
2018-02-12T11:30:20.282Z,44.20
2018-02-12T11:31:25.430Z,44.30
2018-02-12T11:32:30.407Z,44.10
2018-02-12T11:33:35.583Z,44.30
2018-02-12T11:34:40.681Z,44.00
2018-02-12T11:35:45.784Z,44.00
2018-02-12T11:36:51.912Z,43.90
2018-02-12T11:37:57.126Z,43.90
2018-02-12T11:39:02.108Z,43.80
2018-02-12T11:40:07.650Z,43.90
2018-02-12T11:41:12.563Z,43.90
2018-02-12T11:42:17.467Z,44.00
2018-02-12T11:43:22.538Z,44.00
2018-02-12T11:44:27.656Z,44.10
2018-02-12T11:45:32.709Z,44.10
2018-02-12T11:46:37.520Z,44.10
2018-02-12T11:47:42.562Z,44.20
2018-02-12T11:48:47.618Z,44.20
2018-02-12T11:49:52.647Z,44.20
2018-02-12T11:50:58.033Z,44.20
2018-02-12T11:52:03.038Z,44.30
2018-02-12T11:53:07.870Z,44.30
2018-02-12T11:54:12.776Z,44.50
2018-02-12T11:55:17.819Z,44.50
2018-02-12T11:56:23.495Z,44.40
2018-02-12T11:57:28.576Z,44.30
2018-02-12T11:58:33.512Z,44.30
2018-02-12T11:59:38.459Z,44.50
2018-02-12T12:00:43.665Z,44.30
2018-02-12T12:01:48.645Z,44.30
2018-02-12T12:02:53.832Z,44.40
2018-02-12T12:03:59.128Z,44.30
2018-02-12T12:05:04.889Z,44.40
2018-02-12T12:06:10.182Z,44.30
2018-02-12T12:07:15.072Z,44.30
2018-02-12T12:08:20.014Z,44.40
2018-02-12T12:09:25.020Z,44.40
2018-02-12T12:10:30.022Z,44.40
2018-02-12T12:11:35.072Z,44.40
2018-02-12T12:12:40.114Z,44.50
2018-02-12T12:13:45.079Z,44.50
2018-02-12T12:14:50.223Z,44.60
2018-02-12T12:15:55.139Z,44.60
2018-02-12T12:17:00.018Z,44.50
2018-02-12T12:18:04.999Z,44.50
2018-02-12T12:19:10.193Z,44.50
2018-02-12T12:20:15.488Z,44.50
2018-02-12T12:21:20.551Z,44.60
2018-02-12T12:22:25.458Z,44.50
2018-02-12T12:23:30.464Z,45.20
2018-02-12T12:24:35.436Z,44.60
2018-02-12T12:25:40.307Z,44.60
2018-02-12T12:26:45.430Z,44.60
2018-02-12T12:27:50.670Z,44.60
2018-02-12T12:28:55.742Z,44.60
2018-02-12T12:30:00.737Z,44.60
2018-02-12T12:31:05.909Z,44.60
2018-02-12T12:32:11.068Z,44.70
2018-02-12T12:33:16.246Z,44.70
2018-02-12T12:34:21.373Z,44.70
2018-02-12T12:35:27.184Z,44.70
2018-02-12T12:36:32.076Z,44.80
2018-02-12T12:37:37.253Z,44.90
2018-02-12T12:38:42.310Z,44.90
2018-02-12T12:39:47.184Z,45.10
2018-02-12T12:40:52.244Z,45.00
2018-02-12T12:41:57.100Z,45.00
2018-02-12T12:43:02.291Z,45.10
2018-02-12T12:44:07.895Z,45.10
2018-02-12T12:45:12.940Z,45.10
2018-02-12T12:46:18.043Z,45.10
2018-02-12T12:47:23.059Z,45.00
2018-02-12T12:48:28.286Z,44.90
2018-02-12T12:49:33.777Z,44.70
2018-02-12T12:50:38.794Z,44.40
2018-02-12T12:51:43.831Z,44.30
2018-02-12T12:52:50.381Z,44.30
2018-02-12T12:53:55.930Z,45.60
2018-02-12T12:55:00.804Z,45.80
2018-02-12T12:56:05.756Z,45.70
2018-02-12T12:57:10.626Z,45.90
2018-02-12T12:58:15.457Z,45.80
2018-02-12T12:59:20.598Z,45.70
2018-02-12T13:00:25.543Z,46.00
2018-02-12T13:01:30.592Z,46.20
2018-02-12T13:02:35.560Z,45.90
2018-02-12T13:03:41.170Z,45.80
2018-02-12T13:04:47.305Z,46.00
2018-02-12T13:05:52.290Z,46.00
2018-02-12T13:06:57.946Z,45.40
2018-02-12T13:08:03.357Z,46.60
2018-02-12T13:09:08.445Z,45.10
2018-02-12T13:10:13.614Z,45.70
2018-02-12T13:11:19.520Z,45.90
2018-02-12T13:12:24.701Z,45.80
2018-02-12T13:13:29.805Z,46.20
2018-02-12T13:14:34.897Z,46.50
2018-02-12T13:15:40.083Z,46.30
2018-02-12T13:16:45.216Z,46.70
2018-02-12T13:17:50.315Z,46.40
2018-02-12T13:18:55.433Z,46.60
2018-02-12T13:20:00.582Z,46.40
2018-02-12T13:21:05.711Z,46.30
2018-02-12T13:22:10.853Z,45.90
2018-02-12T13:23:15.907Z,45.50
2018-02-12T13:24:20.873Z,46.90
2018-02-12T13:25:25.839Z,45.50
2018-02-12T13:26:32.227Z,45.70
2018-02-12T13:27:37.528Z,45.80
2018-02-12T13:28:42.697Z,45.90
2018-02-12T13:29:47.723Z,45.60
2018-02-12T13:30:52.829Z,45.70
2018-02-12T13:31:57.669Z,45.60
2018-02-12T13:33:02.882Z,45.90
2018-02-12T13:34:07.746Z,45.90
2018-02-12T13:35:12.647Z,45.50
2018-02-12T13:36:17.663Z,45.50
2018-02-12T13:37:22.932Z,45.90
2018-02-12T13:38:28.103Z,45.80
2018-02-12T13:39:33.084Z,45.80
2018-02-12T13:40:38.232Z,46.30
2018-02-12T13:41:43.103Z,46.00
2018-02-12T13:42:48.144Z,46.10
2018-02-12T13:43:53.352Z,46.20
2018-02-12T13:44:58.840Z,46.40
2018-02-12T13:46:03.847Z,46.30
2018-02-12T13:47:09.016Z,46.60
2018-02-12T13:48:14.022Z,46.60
2018-02-12T13:49:19.800Z,46.60
2018-02-12T13:50:25.056Z,46.60
2018-02-12T13:51:29.905Z,46.40
2018-02-12T13:52:34.806Z,46.40
2018-02-12T13:53:39.814Z,46.40
2018-02-12T13:54:44.992Z,46.10
2018-02-12T13:55:50.235Z,46.00
2018-02-12T13:56:55.425Z,46.00
2018-02-12T13:58:01.147Z,46.00